sensor_id;sensor_type;location;lat;lon;timestamp;pressure;altitude;pressure_sealevel;temperature;humidity
46303;BME280;32029;51.358;5.628;2023-07-29T00:01:51;100479.84;;;22.47;98.62
46303;BME280;32029;51.358;5.628;2023-07-29T00:04:26;100489.34;;;22.56;99.04
46303;BME280;32029;51.358;5.628;2023-07-29T00:06:52;100462.78;;;22.54;99.09
46303;BME280;32029;51.358;5.628;2023-07-29T00:09:19;100463.66;;;22.59;99.07
46303;BME280;32029;51.358;5.628;2023-07-29T00:11:46;100476.22;;;22.62;98.80
46303;BME280;32029;51.358;5.628;2023-07-29T00:14:12;100434.53;;;22.45;98.78
46303;BME280;32029;51.358;5.628;2023-07-29T00:16:40;100439.59;;;22.53;98.73
46303;BME280;32029;51.358;5.628;2023-07-29T00:19:08;100416.09;;;22.44;98.88
46303;BME280;32029;51.358;5.628;2023-07-29T00:21:35;100458.91;;;22.70;98.92
46303;BME280;32029;51.358;5.628;2023-07-29T00:24:02;100447.16;;;22.63;98.76
46303;BME280;32029;51.358;5.628;2023-07-29T00:26:28;100460.59;;;22.71;98.41
46303;BME280;32029;51.358;5.628;2023-07-29T00:28:56;100463.09;;;22.72;98.42
46303;BME280;32029;51.358;5.628;2023-07-29T00:31:23;100442.66;;;22.62;98.54
46303;BME280;32029;51.358;5.628;2023-07-29T00:33:51;100446.59;;;22.61;98.40
46303;BME280;32029;51.358;5.628;2023-07-29T00:36:21;100458.06;;;22.69;98.42
46303;BME280;32029;51.358;5.628;2023-07-29T00:38:48;100459.19;;;22.63;98.90
46303;BME280;32029;51.358;5.628;2023-07-29T00:41:17;100454.44;;;22.59;99.48
46303;BME280;32029;51.358;5.628;2023-07-29T00:43:44;100386.38;;;22.17;99.52
46303;BME280;32029;51.358;5.628;2023-07-29T00:46:11;100424.72;;;22.42;99.92
46303;BME280;32029;51.358;5.628;2023-07-29T00:48:39;100425.56;;;22.43;99.48
46303;BME280;32029;51.358;5.628;2023-07-29T00:51:06;100427.28;;;22.44;99.70
46303;BME280;32029;51.358;5.628;2023-07-29T00:53:33;100404.88;;;22.23;100.00
46303;BME280;32029;51.358;5.628;2023-07-29T00:56:01;100431.44;;;22.36;100.00
46303;BME280;32029;51.358;5.628;2023-07-29T00:58:29;100405.41;;;22.20;100.00
46303;BME280;32029;51.358;5.628;2023-07-29T01:01:00;100437.03;;;22.41;100.00
46303;BME280;32029;51.358;5.628;2023-07-29T01:06:09;100438.75;;;22.47;100.00
46303;BME280;32029;51.358;5.628;2023-07-29T01:08:57;100393.03;;;22.06;100.00
46303;BME280;32029;51.358;5.628;2023-07-29T01:14:34;100450.47;;;22.49;100.00
46303;BME280;32029;51.358;5.628;2023-07-29T01:17:09;100396.72;;;22.17;99.91
46303;BME280;32029;51.358;5.628;2023-07-29T01:22:22;100398.97;;;22.20;100.00
46303;BME280;32029;51.358;5.628;2023-07-29T01:24:50;100352.44;;;21.83;100.00
46303;BME280;32029;51.358;5.628;2023-07-29T01:27:18;100373.75;;;22.05;100.00
46303;BME280;32029;51.358;5.628;2023-07-29T01:29:45;100319.97;;;21.62;100.00
46303;BME280;32029;51.358;5.628;2023-07-29T01:32:19;100437.56;;;22.28;99.91
46303;BME280;32029;51.358;5.628;2023-07-29T01:34:57;100422.94;;;22.11;99.97
46303;BME280;32029;51.358;5.628;2023-07-29T01:37:30;100451.84;;;22.32;99.66
46303;BME280;32029;51.358;5.628;2023-07-29T01:40:00;100453.47;;;22.22;99.23
46303;BME280;32029;51.358;5.628;2023-07-29T01:42:28;100333.25;;;21.39;99.10
46303;BME280;32029;51.358;5.628;2023-07-29T01:44:55;100394.84;;;21.70;98.22
46303;BME280;32029;51.358;5.628;2023-07-29T01:47:22;100375.81;;;21.62;97.54
46303;BME280;32029;51.358;5.628;2023-07-29T01:49:49;100432.03;;;21.86;97.41
46303;BME280;32029;51.358;5.628;2023-07-29T01:52:16;100366.75;;;21.39;96.87
46303;BME280;32029;51.358;5.628;2023-07-29T01:54:44;100383.56;;;21.49;97.43
46303;BME280;32029;51.358;5.628;2023-07-29T01:57:11;100350.47;;;21.26;96.95
46303;BME280;32029;51.358;5.628;2023-07-29T01:59:37;100430.59;;;21.73;96.30
46303;BME280;32029;51.358;5.628;2023-07-29T02:02:04;100427.72;;;21.63;96.59
46303;BME280;32029;51.358;5.628;2023-07-29T02:04:32;100373.81;;;21.15;96.43
46303;BME280;32029;51.358;5.628;2023-07-29T02:07:00;100393.41;;;21.25;96.81
46303;BME280;32029;51.358;5.628;2023-07-29T02:09:27;100323.09;;;20.80;96.63
46303;BME280;32029;51.358;5.628;2023-07-29T02:11:56;100376.53;;;21.04;96.11
46303;BME280;32029;51.358;5.628;2023-07-29T02:14:23;100466.50;;;21.59;96.45
46303;BME280;32029;51.358;5.628;2023-07-29T02:16:50;100470.13;;;21.55;95.11
46303;BME280;32029;51.358;5.628;2023-07-29T02:19:17;100370.53;;;20.86;95.62
46303;BME280;32029;51.358;5.628;2023-07-29T02:21:44;100336.31;;;20.63;95.12
46303;BME280;32029;51.358;5.628;2023-07-29T02:24:10;100249.72;;;20.11;94.69
46303;BME280;32029;51.358;5.628;2023-07-29T02:26:37;100451.00;;;21.36;94.84
46303;BME280;32029;51.358;5.628;2023-07-29T02:29:04;100360.69;;;20.78;94.33
46303;BME280;32029;51.358;5.628;2023-07-29T02:31:30;100445.59;;;21.29;94.27
46303;BME280;32029;51.358;5.628;2023-07-29T02:33:57;100428.34;;;20.95;93.93
46303;BME280;32029;51.358;5.628;2023-07-29T02:36:24;100252.47;;;20.05;93.94
46303;BME280;32029;51.358;5.628;2023-07-29T02:38:51;100379.91;;;20.74;93.98
46303;BME280;32029;51.358;5.628;2023-07-29T02:41:18;100358.31;;;20.60;93.81
46303;BME280;32029;51.358;5.628;2023-07-29T02:43:48;100362.09;;;20.48;93.83
46303;BME280;32029;51.358;5.628;2023-07-29T02:46:15;100398.06;;;20.77;93.79
46303;BME280;32029;51.358;5.628;2023-07-29T02:48:42;100454.66;;;21.10;93.86
46303;BME280;32029;51.358;5.628;2023-07-29T02:51:12;100446.84;;;21.07;93.86
46303;BME280;32029;51.358;5.628;2023-07-29T02:53:39;100348.09;;;20.43;93.80
46303;BME280;32029;51.358;5.628;2023-07-29T02:56:05;100239.34;;;19.74;94.11
46303;BME280;32029;51.358;5.628;2023-07-29T02:58:37;100214.47;;;19.62;94.00
46303;BME280;32029;51.358;5.628;2023-07-29T03:01:05;100256.34;;;19.77;94.06
46303;BME280;32029;51.358;5.628;2023-07-29T03:03:32;100253.19;;;19.69;94.22
46303;BME280;32029;51.358;5.628;2023-07-29T03:06:06;100246.00;;;19.73;94.53
46303;BME280;32029;51.358;5.628;2023-07-29T03:08:34;100363.72;;;20.44;94.63
46303;BME280;32029;51.358;5.628;2023-07-29T03:11:14;100343.50;;;20.32;94.61
46303;BME280;32029;51.358;5.628;2023-07-29T03:13:41;100406.38;;;20.72;94.83
46303;BME280;32029;51.358;5.628;2023-07-29T03:16:13;100377.25;;;20.58;94.62
46303;BME280;32029;51.358;5.628;2023-07-29T03:18:42;100429.41;;;20.94;94.46
46303;BME280;32029;51.358;5.628;2023-07-29T03:21:10;100213.41;;;19.68;94.78
46303;BME280;32029;51.358;5.628;2023-07-29T03:23:38;100220.31;;;19.66;94.37
46303;BME280;32029;51.358;5.628;2023-07-29T03:26:04;100387.34;;;20.64;94.79
46303;BME280;32029;51.358;5.628;2023-07-29T03:28:38;100339.53;;;20.23;94.76
46303;BME280;32029;51.358;5.628;2023-07-29T03:31:05;100285.97;;;19.89;95.32
46303;BME280;32029;51.358;5.628;2023-07-29T03:33:33;100378.91;;;20.31;95.60
46303;BME280;32029;51.358;5.628;2023-07-29T03:36:00;100455.41;;;20.68;96.00
46303;BME280;32029;51.358;5.628;2023-07-29T03:38:27;100386.31;;;20.21;96.29
46303;BME280;32029;51.358;5.628;2023-07-29T03:40:54;100446.66;;;20.59;96.44
46303;BME280;32029;51.358;5.628;2023-07-29T03:43:21;100310.66;;;19.80;96.59
46303;BME280;32029;51.358;5.628;2023-07-29T03:45:47;100456.41;;;20.57;96.50
46303;BME280;32029;51.358;5.628;2023-07-29T03:48:15;100399.16;;;20.22;96.46
46303;BME280;32029;51.358;5.628;2023-07-29T03:50:43;100396.56;;;20.15;96.88
46303;BME280;32029;51.358;5.628;2023-07-29T03:53:10;100464.28;;;20.43;97.07
46303;BME280;32029;51.358;5.628;2023-07-29T03:55:38;100461.44;;;20.38;97.14
46303;BME280;32029;51.358;5.628;2023-07-29T03:58:05;100408.44;;;20.05;97.07
46303;BME280;32029;51.358;5.628;2023-07-29T04:00:33;100452.44;;;20.30;97.22
46303;BME280;32029;51.358;5.628;2023-07-29T04:03:00;100434.28;;;20.28;97.32
46303;BME280;32029;51.358;5.628;2023-07-29T04:05:27;100422.81;;;20.24;97.72
46303;BME280;32029;51.358;5.628;2023-07-29T04:07:55;100410.00;;;20.23;97.51
46303;BME280;32029;51.358;5.628;2023-07-29T04:10:24;100394.09;;;20.19;97.28
46303;BME280;32029;51.358;5.628;2023-07-29T04:12:51;100317.81;;;19.71;97.27
46303;BME280;32029;51.358;5.628;2023-07-29T04:15:18;100399.09;;;20.17;97.64
46303;BME280;32029;51.358;5.628;2023-07-29T04:17:45;100377.97;;;19.99;97.16
46303;BME280;32029;51.358;5.628;2023-07-29T04:20:12;100416.09;;;20.20;97.56
46303;BME280;32029;51.358;5.628;2023-07-29T04:22:39;100420.81;;;20.20;97.35
46303;BME280;32029;51.358;5.628;2023-07-29T04:25:07;100420.25;;;20.18;96.95
46303;BME280;32029;51.358;5.628;2023-07-29T04:27:34;100442.22;;;20.14;96.65
46303;BME280;32029;51.358;5.628;2023-07-29T04:30:01;100450.75;;;20.07;97.26
46303;BME280;32029;51.358;5.628;2023-07-29T04:32:27;100392.94;;;19.71;97.25
46303;BME280;32029;51.358;5.628;2023-07-29T04:34:54;100442.16;;;19.87;97.15
46303;BME280;32029;51.358;5.628;2023-07-29T04:37:22;100465.88;;;19.90;97.33
46303;BME280;32029;51.358;5.628;2023-07-29T04:39:49;100466.22;;;19.76;97.81
46303;BME280;32029;51.358;5.628;2023-07-29T04:42:18;100472.97;;;19.80;97.84
46303;BME280;32029;51.358;5.628;2023-07-29T04:44:46;100430.22;;;19.53;98.72
46303;BME280;32029;51.358;5.628;2023-07-29T04:47:14;100483.84;;;19.82;98.15
46303;BME280;32029;51.358;5.628;2023-07-29T04:49:41;100412.13;;;19.50;98.43
46303;BME280;32029;51.358;5.628;2023-07-29T04:52:08;100459.97;;;19.86;98.13
46303;BME280;32029;51.358;5.628;2023-07-29T04:54:34;100456.41;;;19.91;98.29
46303;BME280;32029;51.358;5.628;2023-07-29T04:57:01;100460.03;;;19.91;97.96
46303;BME280;32029;51.358;5.628;2023-07-29T04:59:28;100442.09;;;19.82;97.77
46303;BME280;32029;51.358;5.628;2023-07-29T05:01:54;100431.66;;;19.72;97.54
46303;BME280;32029;51.358;5.628;2023-07-29T05:04:21;100466.88;;;19.83;97.24
46303;BME280;32029;51.358;5.628;2023-07-29T05:06:48;100486.91;;;20.02;97.16
46303;BME280;32029;51.358;5.628;2023-07-29T05:09:16;100491.88;;;20.00;96.88
46303;BME280;32029;51.358;5.628;2023-07-29T05:11:43;100495.22;;;19.97;97.48
46303;BME280;32029;51.358;5.628;2023-07-29T05:14:13;100475.06;;;19.90;97.57
46303;BME280;32029;51.358;5.628;2023-07-29T05:16:39;100473.44;;;19.94;97.00
46303;BME280;32029;51.358;5.628;2023-07-29T05:19:06;100488.66;;;20.08;96.88
46303;BME280;32029;51.358;5.628;2023-07-29T05:21:33;100489.25;;;20.11;96.78
46303;BME280;32029;51.358;5.628;2023-07-29T05:24:00;100415.66;;;19.63;96.89
46303;BME280;32029;51.358;5.628;2023-07-29T05:26:28;100483.06;;;20.08;96.76
46303;BME280;32029;51.358;5.628;2023-07-29T05:28:54;100443.50;;;19.85;96.37
46303;BME280;32029;51.358;5.628;2023-07-29T05:31:23;100500.53;;;20.21;95.44
46303;BME280;32029;51.358;5.628;2023-07-29T05:33:50;100488.41;;;20.10;95.57
46303;BME280;32029;51.358;5.628;2023-07-29T05:36:21;100501.28;;;20.16;95.29
46303;BME280;32029;51.358;5.628;2023-07-29T05:38:53;100489.75;;;20.07;95.38
46303;BME280;32029;51.358;5.628;2023-07-29T05:41:32;100505.50;;;20.19;95.00
46303;BME280;32029;51.358;5.628;2023-07-29T05:44:01;100513.03;;;20.18;95.20
46303;BME280;32029;51.358;5.628;2023-07-29T05:46:27;100504.94;;;20.17;95.11
46303;BME280;32029;51.358;5.628;2023-07-29T05:48:57;100506.66;;;20.23;94.79
46303;BME280;32029;51.358;5.628;2023-07-29T05:51:29;100501.09;;;20.23;95.17
46303;BME280;32029;51.358;5.628;2023-07-29T05:54:01;100503.09;;;20.27;94.87
46303;BME280;32029;51.358;5.628;2023-07-29T05:56:31;100494.41;;;20.24;94.89
46303;BME280;32029;51.358;5.628;2023-07-29T05:59:05;100483.97;;;20.36;94.75
46303;BME280;32029;51.358;5.628;2023-07-29T06:01:38;100472.91;;;20.41;94.50
46303;BME280;32029;51.358;5.628;2023-07-29T06:04:12;100449.47;;;20.37;93.96
46303;BME280;32029;51.358;5.628;2023-07-29T06:06:38;100443.38;;;20.40;93.23
46303;BME280;32029;51.358;5.628;2023-07-29T06:09:08;100475.38;;;20.60;93.21
46303;BME280;32029;51.358;5.628;2023-07-29T06:11:42;100477.16;;;20.71;92.64
46303;BME280;32029;51.358;5.628;2023-07-29T06:14:15;100482.22;;;20.74;92.87
46303;BME280;32029;51.358;5.628;2023-07-29T06:16:41;100491.22;;;20.81;91.71
46303;BME280;32029;51.358;5.628;2023-07-29T06:19:08;100487.31;;;20.82;91.80
46303;BME280;32029;51.358;5.628;2023-07-29T06:21:42;100464.09;;;20.71;91.90
46303;BME280;32029;51.358;5.628;2023-07-29T06:24:13;100490.22;;;20.92;92.01
46303;BME280;32029;51.358;5.628;2023-07-29T06:26:43;100496.13;;;21.01;91.88
46303;BME280;32029;51.358;5.628;2023-07-29T06:29:14;100458.09;;;20.90;91.64
46303;BME280;32029;51.358;5.628;2023-07-29T06:31:45;100485.34;;;21.10;91.04
46303;BME280;32029;51.358;5.628;2023-07-29T06:34:17;100465.78;;;21.04;90.58
46303;BME280;32029;51.358;5.628;2023-07-29T06:36:47;100463.31;;;21.08;89.75
46303;BME280;32029;51.358;5.628;2023-07-29T06:39:14;100500.66;;;21.34;89.95
46303;BME280;32029;51.358;5.628;2023-07-29T06:41:44;100464.78;;;21.21;89.79
46303;BME280;32029;51.358;5.628;2023-07-29T06:44:17;100493.19;;;21.45;88.47
46303;BME280;32029;51.358;5.628;2023-07-29T06:46:50;100455.91;;;21.24;88.59
46303;BME280;32029;51.358;5.628;2023-07-29T06:49:21;100503.63;;;21.55;87.82
46303;BME280;32029;51.358;5.628;2023-07-29T06:51:50;100486.03;;;21.54;87.43
46303;BME280;32029;51.358;5.628;2023-07-29T06:54:39;100496.50;;;21.74;87.07
46303;BME280;32029;51.358;5.628;2023-07-29T06:57:09;100500.72;;;21.82;86.97
46303;BME280;32029;51.358;5.628;2023-07-29T06:59:42;100510.00;;;21.92;86.56
46303;BME280;32029;51.358;5.628;2023-07-29T07:02:12;100509.53;;;22.06;87.40
46303;BME280;32029;51.358;5.628;2023-07-29T07:04:43;100483.78;;;22.03;85.86
46303;BME280;32029;51.358;5.628;2023-07-29T07:07:11;100496.25;;;22.28;85.02
46303;BME280;32029;51.358;5.628;2023-07-29T07:09:39;100478.91;;;22.21;84.51
46303;BME280;32029;51.358;5.628;2023-07-29T07:12:11;100497.75;;;22.51;83.88
46303;BME280;32029;51.358;5.628;2023-07-29T07:14:39;100504.75;;;22.64;83.91
46303;BME280;32029;51.358;5.628;2023-07-29T07:17:09;100491.38;;;22.76;82.40
46303;BME280;32029;51.358;5.628;2023-07-29T07:19:42;100472.34;;;22.68;82.82
46303;BME280;32029;51.358;5.628;2023-07-29T07:22:16;100505.16;;;22.98;81.84
46303;BME280;32029;51.358;5.628;2023-07-29T07:24:46;100487.53;;;23.03;81.47
46303;BME280;32029;51.358;5.628;2023-07-29T07:27:13;100511.06;;;23.22;80.87
46303;BME280;32029;51.358;5.628;2023-07-29T07:29:48;100496.50;;;23.10;80.40
46303;BME280;32029;51.358;5.628;2023-07-29T07:32:19;100526.44;;;23.35;79.86
46303;BME280;32029;51.358;5.628;2023-07-29T07:34:52;100525.88;;;23.38;79.66
46303;BME280;32029;51.358;5.628;2023-07-29T07:37:24;100502.63;;;23.32;79.37
46303;BME280;32029;51.358;5.628;2023-07-29T07:39:52;100486.69;;;23.28;79.80
46303;BME280;32029;51.358;5.628;2023-07-29T07:42:22;100519.47;;;23.53;77.49
46303;BME280;32029;51.358;5.628;2023-07-29T07:44:49;100506.56;;;23.46;77.72
46303;BME280;32029;51.358;5.628;2023-07-29T07:47:24;100504.91;;;23.45;77.39
46303;BME280;32029;51.358;5.628;2023-07-29T07:49:58;100507.13;;;23.48;78.36
46303;BME280;32029;51.358;5.628;2023-07-29T07:52:28;100513.28;;;23.56;76.64
46303;BME280;32029;51.358;5.628;2023-07-29T07:55:02;100523.63;;;23.65;77.35
46303;BME280;32029;51.358;5.628;2023-07-29T07:57:33;100528.97;;;23.67;76.21
46303;BME280;32029;51.358;5.628;2023-07-29T08:00:00;100526.72;;;23.59;75.95
46303;BME280;32029;51.358;5.628;2023-07-29T08:02:33;100533.19;;;23.49;76.51
46303;BME280;32029;51.358;5.628;2023-07-29T08:05:03;100527.28;;;23.40;76.81
46303;BME280;32029;51.358;5.628;2023-07-29T08:07:30;100536.53;;;23.46;76.93
46303;BME280;32029;51.358;5.628;2023-07-29T08:09:57;100532.03;;;23.50;77.37
46303;BME280;32029;51.358;5.628;2023-07-29T08:12:24;100495.09;;;23.43;77.08
46303;BME280;32029;51.358;5.628;2023-07-29T08:14:53;100521.41;;;23.62;76.16
46303;BME280;32029;51.358;5.628;2023-07-29T08:17:22;100529.56;;;23.69;76.12
46303;BME280;32029;51.358;5.628;2023-07-29T08:19:55;100513.03;;;23.73;75.55
46303;BME280;32029;51.358;5.628;2023-07-29T08:22:26;100527.81;;;23.83;75.07
46303;BME280;32029;51.358;5.628;2023-07-29T08:24:56;100523.38;;;23.87;75.23
46303;BME280;32029;51.358;5.628;2023-07-29T08:27:25;100516.06;;;23.91;76.26
46303;BME280;32029;51.358;5.628;2023-07-29T08:29:53;100461.19;;;23.70;74.84
46303;BME280;32029;51.358;5.628;2023-07-29T08:32:21;100533.91;;;24.21;74.82
46303;BME280;32029;51.358;5.628;2023-07-29T08:34:54;100542.63;;;24.19;75.70
46303;BME280;32029;51.358;5.628;2023-07-29T08:37:22;100539.75;;;24.35;76.18
46303;BME280;32029;51.358;5.628;2023-07-29T08:40:01;100531.63;;;24.43;75.05
46303;BME280;32029;51.358;5.628;2023-07-29T08:42:36;100529.38;;;24.40;73.84
46303;BME280;32029;51.358;5.628;2023-07-29T08:45:11;100544.22;;;24.51;74.54
46303;BME280;32029;51.358;5.628;2023-07-29T08:47:43;100532.47;;;24.44;73.35
46303;BME280;32029;51.358;5.628;2023-07-29T08:50:09;100517.03;;;24.41;73.55
46303;BME280;32029;51.358;5.628;2023-07-29T08:52:37;100519.00;;;24.46;73.30
46303;BME280;32029;51.358;5.628;2023-07-29T08:55:14;100525.09;;;24.63;73.70
46303;BME280;32029;51.358;5.628;2023-07-29T08:57:41;100529.81;;;24.68;72.62
46303;BME280;32029;51.358;5.628;2023-07-29T09:00:12;100527.53;;;24.75;71.80
46303;BME280;32029;51.358;5.628;2023-07-29T09:02:50;100521.13;;;24.64;71.45
46303;BME280;32029;51.358;5.628;2023-07-29T09:05:20;100527.25;;;24.77;71.90
46303;BME280;32029;51.358;5.628;2023-07-29T09:07:54;100514.94;;;24.73;72.80
46303;BME280;32029;51.358;5.628;2023-07-29T09:10:39;100527.81;;;24.79;71.28
46303;BME280;32029;51.358;5.628;2023-07-29T09:13:08;100516.63;;;24.68;72.03
46303;BME280;32029;51.358;5.628;2023-07-29T09:15:36;100498.44;;;24.61;72.38
46303;BME280;32029;51.358;5.628;2023-07-29T09:18:17;100531.72;;;24.83;72.65
46303;BME280;32029;51.358;5.628;2023-07-29T09:21:03;100535.34;;;24.83;71.27
46303;BME280;32029;51.358;5.628;2023-07-29T09:23:42;100542.09;;;24.82;71.85
46303;BME280;32029;51.358;5.628;2023-07-29T09:26:29;100508.56;;;24.57;71.35
46303;BME280;32029;51.358;5.628;2023-07-29T09:28:57;100530.69;;;24.63;71.01
46303;BME280;32029;51.358;5.628;2023-07-29T09:31:36;100519.84;;;24.41;71.66
46303;BME280;32029;51.358;5.628;2023-07-29T09:34:07;100524.84;;;24.50;73.88
46303;BME280;32029;51.358;5.628;2023-07-29T09:36:35;100498.53;;;24.35;73.06
46303;BME280;32029;51.358;5.628;2023-07-29T09:39:02;100503.59;;;24.43;73.45
46303;BME280;32029;51.358;5.628;2023-07-29T09:41:38;100516.97;;;24.57;72.89
46303;BME280;32029;51.358;5.628;2023-07-29T09:44:07;100495.72;;;24.45;72.15
46303;BME280;32029;51.358;5.628;2023-07-29T09:46:49;100506.94;;;24.45;72.79
46303;BME280;32029;51.358;5.628;2023-07-29T09:49:22;100526.00;;;24.54;71.46
46303;BME280;32029;51.358;5.628;2023-07-29T09:51:55;100523.97;;;24.59;71.36
46303;BME280;32029;51.358;5.628;2023-07-29T09:54:31;100508.84;;;24.55;71.47
46303;BME280;32029;51.358;5.628;2023-07-29T09:57:04;100534.75;;;24.91;71.97
46303;BME280;32029;51.358;5.628;2023-07-29T09:59:56;100515.88;;;25.02;71.00
46303;BME280;32029;51.358;5.628;2023-07-29T10:02:29;100526.09;;;25.27;71.53
46303;BME280;32029;51.358;5.628;2023-07-29T10:05:02;100496.88;;;25.33;70.01
46303;BME280;32029;51.358;5.628;2023-07-29T10:07:46;100504.00;;;25.50;69.25
46303;BME280;32029;51.358;5.628;2023-07-29T10:10:25;100509.00;;;25.58;67.68
46303;BME280;32029;51.358;5.628;2023-07-29T10:13:09;100495.31;;;25.51;67.80
46303;BME280;32029;51.358;5.628;2023-07-29T10:15:47;100519.59;;;25.66;68.14
46303;BME280;32029;51.358;5.628;2023-07-29T10:18:18;100524.56;;;25.74;67.65
46303;BME280;32029;51.358;5.628;2023-07-29T10:20:53;100503.34;;;25.63;68.20
46303;BME280;32029;51.358;5.628;2023-07-29T10:23:26;100514.94;;;25.85;67.06
46303;BME280;32029;51.358;5.628;2023-07-29T10:26:06;100500.63;;;25.82;67.38
46303;BME280;32029;51.358;5.628;2023-07-29T10:28:41;100520.41;;;26.01;67.77
46303;BME280;32029;51.358;5.628;2023-07-29T10:31:21;100520.22;;;26.16;66.66
46303;BME280;32029;51.358;5.628;2023-07-29T10:33:59;100516.00;;;26.19;66.21
46303;BME280;32029;51.358;5.628;2023-07-29T10:36:33;100484.28;;;26.13;66.41
46303;BME280;32029;51.358;5.628;2023-07-29T10:39:07;100511.53;;;26.36;66.09
46303;BME280;32029;51.358;5.628;2023-07-29T10:42:05;100513.59;;;26.55;66.30
46303;BME280;32029;51.358;5.628;2023-07-29T10:47:23;100497.34;;;26.71;65.52
46303;BME280;32029;51.358;5.628;2023-07-29T10:50:21;100501.69;;;26.82;63.57
46303;BME280;32029;51.358;5.628;2023-07-29T10:52:51;100502.69;;;26.72;63.37
46303;BME280;32029;51.358;5.628;2023-07-29T10:55:36;100507.53;;;26.67;64.33
46303;BME280;32029;51.358;5.628;2023-07-29T10:58:08;100500.69;;;26.73;65.14
46303;BME280;32029;51.358;5.628;2023-07-29T11:00:45;100476.22;;;26.73;65.17
46303;BME280;32029;51.358;5.628;2023-07-29T11:03:15;100503.59;;;27.05;64.85
46303;BME280;32029;51.358;5.628;2023-07-29T11:05:51;100493.25;;;27.20;64.53
46303;BME280;32029;51.358;5.628;2023-07-29T11:08:33;100483.34;;;27.22;62.98
46303;BME280;32029;51.358;5.628;2023-07-29T11:11:15;100481.66;;;27.40;63.82
46303;BME280;32029;51.358;5.628;2023-07-29T11:13:44;100473.75;;;27.56;63.10
46303;BME280;32029;51.358;5.628;2023-07-29T11:16:20;100492.13;;;27.86;63.19
46303;BME280;32029;51.358;5.628;2023-07-29T11:18:49;100479.59;;;27.92;62.41
46303;BME280;32029;51.358;5.628;2023-07-29T11:21:23;100474.91;;;28.15;63.07
46303;BME280;32029;51.358;5.628;2023-07-29T11:23:54;100492.03;;;28.32;62.39
46303;BME280;32029;51.358;5.628;2023-07-29T11:26:22;100433.00;;;28.08;61.19
46303;BME280;32029;51.358;5.628;2023-07-29T11:28:55;100479.28;;;28.35;61.25
46303;BME280;32029;51.358;5.628;2023-07-29T11:31:42;100472.50;;;28.22;60.80
46303;BME280;32029;51.358;5.628;2023-07-29T11:34:12;100471.03;;;28.11;61.85
46303;BME280;32029;51.358;5.628;2023-07-29T11:36:47;100469.38;;;28.10;62.14
46303;BME280;32029;51.358;5.628;2023-07-29T11:39:17;100478.75;;;28.19;62.92
46303;BME280;32029;51.358;5.628;2023-07-29T11:41:47;100469.34;;;28.24;61.54
46303;BME280;32029;51.358;5.628;2023-07-29T11:44:18;100469.56;;;28.27;61.71
46303;BME280;32029;51.358;5.628;2023-07-29T11:46:57;100481.50;;;28.38;61.62
46303;BME280;32029;51.358;5.628;2023-07-29T11:49:28;100452.75;;;28.22;60.10
46303;BME280;32029;51.358;5.628;2023-07-29T11:52:09;100447.53;;;28.16;60.68
46303;BME280;32029;51.358;5.628;2023-07-29T11:54:48;100482.41;;;28.33;60.51
46303;BME280;32029;51.358;5.628;2023-07-29T11:57:16;100473.53;;;28.26;61.01
46303;BME280;32029;51.358;5.628;2023-07-29T11:59:55;100450.97;;;28.26;60.15
46303;BME280;32029;51.358;5.628;2023-07-29T12:02:28;100484.41;;;28.47;60.03
46303;BME280;32029;51.358;5.628;2023-07-29T12:04:56;100468.31;;;28.33;60.08
46303;BME280;32029;51.358;5.628;2023-07-29T12:07:29;100465.19;;;28.21;60.78
46303;BME280;32029;51.358;5.628;2023-07-29T12:10:02;100472.91;;;28.29;61.59
46303;BME280;32029;51.358;5.628;2023-07-29T12:12:30;100476.06;;;28.42;62.05
46303;BME280;32029;51.358;5.628;2023-07-29T12:15:01;100490.88;;;28.61;61.71
46303;BME280;32029;51.358;5.628;2023-07-29T12:17:39;100484.91;;;28.76;61.67
46303;BME280;32029;51.358;5.628;2023-07-29T12:20:10;100457.28;;;28.73;61.82
46303;BME280;32029;51.358;5.628;2023-07-29T12:22:38;100483.91;;;28.95;59.91
46303;BME280;32029;51.358;5.628;2023-07-29T12:25:06;100446.63;;;28.70;59.57
46303;BME280;32029;51.358;5.628;2023-07-29T12:27:33;100473.72;;;28.71;59.87
46303;BME280;32029;51.358;5.628;2023-07-29T12:30:01;100472.50;;;28.50;59.00
46303;BME280;32029;51.358;5.628;2023-07-29T12:32:30;100493.41;;;28.21;60.44
46303;BME280;32029;51.358;5.628;2023-07-29T12:34:58;100514.78;;;27.95;65.04
46303;BME280;32029;51.358;5.628;2023-07-29T12:37:31;100562.97;;;27.47;76.51
46303;BME280;32029;51.358;5.628;2023-07-29T12:39:59;100563.69;;;26.77;83.27
46303;BME280;32029;51.358;5.628;2023-07-29T12:42:26;100532.53;;;25.96;87.65
46303;BME280;32029;51.358;5.628;2023-07-29T12:44:54;100549.88;;;25.40;88.61
46303;BME280;32029;51.358;5.628;2023-07-29T12:47:21;100561.09;;;24.96;90.88
46303;BME280;32029;51.358;5.628;2023-07-29T12:49:48;100542.00;;;24.43;95.22
46303;BME280;32029;51.358;5.628;2023-07-29T12:52:15;100556.06;;;24.23;94.59
46303;BME280;32029;51.358;5.628;2023-07-29T12:54:42;100544.09;;;23.81;96.48
46303;BME280;32029;51.358;5.628;2023-07-29T12:57:10;100566.19;;;23.62;97.92
46303;BME280;32029;51.358;5.628;2023-07-29T12:59:37;100546.88;;;23.40;100.00
46303;BME280;32029;51.358;5.628;2023-07-29T13:02:04;100559.19;;;23.24;100.00
46303;BME280;32029;51.358;5.628;2023-07-29T13:04:31;100552.44;;;23.20;100.00
46303;BME280;32029;51.358;5.628;2023-07-29T13:06:58;100535.38;;;23.16;100.00
46303;BME280;32029;51.358;5.628;2023-07-29T13:09:26;100530.91;;;23.31;100.00
46303;BME280;32029;51.358;5.628;2023-07-29T13:11:52;100547.44;;;23.58;100.00
46303;BME280;32029;51.358;5.628;2023-07-29T13:14:19;100538.50;;;23.66;100.00
46303;BME280;32029;51.358;5.628;2023-07-29T13:16:46;100546.34;;;23.74;100.00
46303;BME280;32029;51.358;5.628;2023-07-29T13:19:13;100516.09;;;23.66;100.00